createdAt,value
2018-12-19T00:00:43.346Z,4.60
2018-12-19T00:01:46.768Z,4.95
2018-12-19T00:02:50.338Z,5.37
2018-12-19T00:03:53.998Z,5.20
2018-12-19T00:04:57.637Z,4.85
2018-12-19T00:06:01.176Z,4.40
2018-12-19T00:07:04.573Z,6.62
2018-12-19T00:08:07.958Z,6.05
2018-12-19T00:09:11.366Z,5.67
2018-12-19T00:10:14.797Z,5.33
2018-12-19T00:11:18.246Z,5.80
2018-12-19T00:12:21.713Z,5.15
2018-12-19T00:13:25.080Z,5.35
2018-12-19T00:14:28.603Z,4.87
2018-12-19T00:15:32.175Z,5.40
2018-12-19T00:16:35.587Z,4.80
2018-12-19T00:17:39.007Z,4.80
2018-12-19T00:18:42.394Z,4.85
2018-12-19T00:19:45.799Z,5.17
2018-12-19T00:20:49.286Z,5.60
2018-12-19T00:21:52.667Z,5.42
2018-12-19T00:22:56.049Z,4.70
2018-12-19T00:23:59.413Z,5.10
2018-12-19T00:25:03.226Z,4.80
2018-12-19T00:26:06.619Z,4.80
2018-12-19T00:27:09.999Z,5.05
2018-12-19T00:28:13.391Z,5.00
2018-12-19T00:29:16.823Z,5.67
2018-12-19T00:30:20.202Z,5.42
2018-12-19T00:31:23.622Z,5.08
2018-12-19T00:32:26.995Z,4.75
2018-12-19T00:33:30.369Z,4.90
2018-12-19T00:34:33.741Z,5.50
2018-12-19T00:35:37.171Z,5.42
2018-12-19T00:36:40.601Z,4.95
2018-12-19T00:37:44.226Z,5.53
2018-12-19T00:38:48.200Z,4.83
2018-12-19T00:39:51.580Z,5.20
2018-12-19T00:40:54.943Z,4.70
2018-12-19T00:41:58.363Z,5.55
2018-12-19T00:43:01.750Z,5.42
2018-12-19T00:44:05.126Z,4.20
2018-12-19T00:45:08.709Z,5.62
2018-12-19T00:46:12.100Z,4.60
2018-12-19T00:47:15.489Z,4.92
2018-12-19T00:48:18.864Z,5.40
2018-12-19T00:49:22.244Z,5.00
2018-12-19T00:50:25.618Z,4.55
2018-12-19T00:51:29.014Z,4.67
2018-12-19T00:52:32.467Z,5.12
2018-12-19T00:53:35.846Z,4.35
2018-12-19T00:54:39.258Z,4.55
2018-12-19T00:55:42.650Z,4.62
2018-12-19T00:56:46.009Z,4.97
2018-12-19T00:57:49.426Z,5.20
2018-12-19T00:58:52.806Z,5.20
2018-12-19T00:59:56.169Z,5.53
2018-12-19T01:00:59.703Z,5.62
2018-12-19T01:02:03.090Z,5.20
2018-12-19T01:03:06.618Z,5.40
2018-12-19T01:04:09.992Z,5.35
2018-12-19T01:05:13.366Z,4.72
2018-12-19T01:06:16.742Z,5.22
2018-12-19T01:07:20.343Z,5.53
2018-12-19T01:08:23.747Z,5.72
2018-12-19T01:09:27.128Z,5.05
2018-12-19T01:10:30.534Z,5.03
2018-12-19T01:11:33.907Z,5.17
2018-12-19T01:12:37.334Z,4.85
2018-12-19T01:13:40.869Z,4.85
2018-12-19T01:14:44.234Z,4.53
2018-12-19T01:15:47.613Z,4.65
2018-12-19T01:16:51.003Z,4.83
2018-12-19T01:17:54.385Z,4.72
2018-12-19T01:18:57.774Z,5.00
2018-12-19T01:20:01.289Z,4.72
2018-12-19T01:21:04.758Z,5.00
2018-12-19T01:22:08.131Z,4.70
2018-12-19T01:23:12.182Z,4.58
2018-12-19T01:24:15.570Z,5.00
2018-12-19T01:25:18.950Z,5.15
2018-12-19T01:26:22.311Z,5.30
2018-12-19T01:27:25.699Z,5.40
2018-12-19T01:28:29.106Z,5.25
2018-12-19T01:29:32.516Z,5.08
2018-12-19T01:30:35.946Z,5.17
2018-12-19T01:31:39.326Z,5.75
2018-12-19T01:32:42.709Z,4.53
2018-12-19T01:33:46.128Z,4.70
2018-12-19T01:34:49.505Z,4.65
2018-12-19T01:35:52.886Z,4.60
2018-12-19T01:36:56.259Z,4.58
2018-12-19T01:37:59.631Z,3.87
2018-12-19T01:39:03.646Z,4.87
2018-12-19T01:40:07.027Z,4.33
2018-12-19T01:41:10.443Z,4.15
2018-12-19T01:42:14.020Z,4.10
2018-12-19T01:43:17.444Z,3.92
2018-12-19T01:44:20.846Z,4.08
2018-12-19T01:45:24.210Z,3.95
2018-12-19T01:46:27.671Z,4.12
2018-12-19T01:47:31.269Z,3.80
2018-12-19T01:48:34.639Z,3.92
2018-12-19T01:49:38.082Z,4.00
2018-12-19T01:50:41.458Z,3.47
2018-12-19T01:51:44.872Z,4.10
2018-12-19T01:52:48.277Z,3.90
2018-12-19T01:53:51.633Z,4.00
2018-12-19T01:54:55.028Z,3.90
2018-12-19T01:55:58.755Z,3.92
2018-12-19T01:57:02.269Z,4.08
2018-12-19T01:58:05.651Z,4.10
2018-12-19T01:59:09.099Z,4.08
2018-12-19T02:00:12.530Z,4.12
2018-12-19T02:01:15.910Z,3.83
2018-12-19T02:02:19.265Z,3.52
2018-12-19T02:03:22.640Z,3.92
2018-12-19T02:04:26.025Z,4.00
2018-12-19T02:05:29.489Z,3.80
2018-12-19T02:06:32.858Z,3.40
2018-12-19T02:07:36.253Z,3.75
2018-12-19T02:08:39.630Z,3.95
2018-12-19T02:09:43.011Z,3.42
2018-12-19T02:10:46.404Z,3.90
2018-12-19T02:11:49.848Z,3.87
2018-12-19T02:12:53.317Z,3.17
2018-12-19T02:13:56.682Z,3.58
2018-12-19T02:15:00.087Z,3.50
2018-12-19T02:16:03.583Z,3.70
2018-12-19T02:17:07.035Z,4.08
2018-12-19T02:18:10.410Z,3.58
2018-12-19T02:19:13.804Z,3.65
2018-12-19T02:20:17.208Z,3.65
2018-12-19T02:21:20.615Z,3.92
2018-12-19T02:22:23.991Z,3.60
2018-12-19T02:23:27.419Z,3.35
2018-12-19T02:24:30.817Z,3.47
2018-12-19T02:25:34.181Z,3.40
2018-12-19T02:26:37.598Z,3.85
2018-12-19T02:27:40.965Z,4.20
2018-12-19T02:28:44.334Z,3.85
2018-12-19T02:29:47.850Z,3.95
2018-12-19T02:30:51.222Z,3.55
2018-12-19T02:31:54.623Z,3.72
2018-12-19T02:32:58.010Z,3.70
2018-12-19T02:34:01.622Z,3.60
2018-12-19T02:35:05.015Z,3.80
2018-12-19T02:36:08.478Z,3.67
2018-12-19T02:37:11.851Z,3.62
2018-12-19T02:38:15.244Z,3.98
2018-12-19T02:39:18.613Z,3.20
2018-12-19T02:40:22.001Z,3.70
2018-12-19T02:41:25.378Z,3.33
2018-12-19T02:42:28.906Z,3.45
2018-12-19T02:43:32.284Z,3.90
2018-12-19T02:44:35.768Z,3.60
2018-12-19T02:45:39.139Z,3.52
2018-12-19T02:46:42.526Z,4.05
2018-12-19T02:47:45.916Z,3.67
2018-12-19T02:48:49.318Z,4.03
2018-12-19T02:49:52.676Z,3.58
2018-12-19T02:50:56.114Z,3.50
2018-12-19T02:51:59.616Z,3.62
2018-12-19T02:53:03.023Z,3.70
2018-12-19T02:54:06.395Z,3.95
2018-12-19T02:55:09.910Z,4.12
2018-12-19T02:56:13.293Z,3.83
2018-12-19T02:57:16.749Z,3.92
2018-12-19T02:58:20.142Z,3.60
2018-12-19T02:59:23.513Z,3.62
2018-12-19T03:00:26.896Z,3.55
2018-12-19T03:01:30.483Z,3.70
2018-12-19T03:02:33.920Z,4.17
2018-12-19T03:03:37.312Z,3.62
2018-12-19T03:04:40.717Z,3.77
2018-12-19T03:05:44.086Z,3.77
2018-12-19T03:06:47.474Z,3.85
2018-12-19T03:07:50.869Z,3.80
2018-12-19T03:08:54.286Z,3.30
2018-12-19T03:09:57.648Z,3.02
2018-12-19T03:11:01.246Z,3.27
2018-12-19T03:12:04.624Z,3.33
2018-12-19T03:13:08.000Z,3.35
2018-12-19T03:14:11.409Z,3.45
2018-12-19T03:15:14.806Z,3.62
2018-12-19T03:16:18.302Z,3.67
2018-12-19T03:17:21.678Z,3.80
2018-12-19T03:18:25.049Z,3.67
2018-12-19T03:19:28.455Z,3.35
2018-12-19T03:20:31.851Z,3.80
2018-12-19T03:21:35.282Z,3.62
2018-12-19T03:22:38.694Z,3.12
2018-12-19T03:23:42.061Z,3.42
2018-12-19T03:24:45.476Z,3.30
2018-12-19T03:25:48.884Z,3.67
2018-12-19T03:26:52.268Z,3.50
2018-12-19T03:27:55.813Z,3.55
2018-12-19T03:28:59.205Z,3.37
2018-12-19T03:30:02.598Z,3.12
2018-12-19T03:31:06.076Z,3.10
2018-12-19T03:32:09.435Z,3.27
2018-12-19T03:33:12.827Z,3.27
2018-12-19T03:34:16.239Z,3.33
2018-12-19T03:35:19.641Z,3.42
2018-12-19T03:36:23.020Z,3.22
2018-12-19T03:37:26.374Z,3.58
2018-12-19T03:38:29.883Z,3.50
2018-12-19T03:39:33.262Z,2.98
2018-12-19T03:40:36.714Z,3.33
2018-12-19T03:41:40.196Z,2.95
2018-12-19T03:42:43.598Z,3.20
2018-12-19T03:43:46.969Z,3.17
2018-12-19T03:44:50.341Z,3.17
2018-12-19T03:45:53.737Z,3.10
2018-12-19T03:46:57.123Z,3.72
2018-12-19T03:48:00.511Z,3.05
2018-12-19T03:49:03.920Z,3.00
2018-12-19T03:50:07.441Z,3.35
2018-12-19T03:51:10.847Z,3.55
2018-12-19T03:52:14.218Z,3.10
2018-12-19T03:53:17.583Z,3.20
2018-12-19T03:54:21.168Z,3.40
2018-12-19T03:55:24.590Z,3.70
2018-12-19T03:56:28.002Z,3.20
2018-12-19T03:57:31.543Z,3.20
2018-12-19T03:58:35.001Z,3.00
2018-12-19T03:59:38.377Z,3.60
2018-12-19T04:00:41.768Z,2.87
2018-12-19T04:01:45.149Z,3.50
2018-12-19T04:02:48.535Z,3.55
2018-12-19T04:03:51.899Z,3.20
2018-12-19T04:04:55.451Z,3.15
2018-12-19T04:05:58.838Z,3.27
2018-12-19T04:07:02.222Z,2.92
2018-12-19T04:08:05.634Z,3.10
2018-12-19T04:09:09.015Z,3.37
2018-12-19T04:10:12.394Z,2.98
2018-12-19T04:11:15.818Z,3.27
2018-12-19T04:12:19.227Z,3.55
2018-12-19T04:13:22.602Z,2.52
2018-12-19T04:14:25.981Z,3.22
2018-12-19T04:15:29.338Z,3.12
2018-12-19T04:16:32.731Z,3.15
2018-12-19T04:17:36.126Z,3.00
2018-12-19T04:18:39.509Z,3.10
2018-12-19T04:19:42.884Z,3.00
2018-12-19T04:20:46.328Z,3.20
2018-12-19T04:21:49.692Z,3.00
2018-12-19T04:22:53.078Z,3.75
2018-12-19T04:23:56.477Z,3.47
2018-12-19T04:24:59.897Z,3.33
2018-12-19T04:26:03.279Z,3.17
2018-12-19T04:27:06.669Z,3.25
2018-12-19T04:28:10.051Z,3.55
2018-12-19T04:29:13.430Z,3.20
2018-12-19T04:30:16.851Z,3.05
2018-12-19T04:31:20.310Z,3.50
2018-12-19T04:32:23.829Z,2.90
2018-12-19T04:33:27.239Z,3.10
2018-12-19T04:34:30.709Z,3.20
2018-12-19T04:35:34.297Z,3.10
2018-12-19T04:36:37.679Z,2.85
2018-12-19T04:37:41.097Z,3.02
2018-12-19T04:38:44.731Z,3.33
2018-12-19T04:39:48.098Z,3.37
2018-12-19T04:40:51.449Z,3.02
2018-12-19T04:41:54.851Z,3.20
2018-12-19T04:42:58.255Z,3.17
2018-12-19T04:44:01.642Z,3.20
2018-12-19T04:45:05.509Z,4.50
2018-12-19T04:46:08.895Z,6.58
2018-12-19T04:47:12.306Z,5.00
2018-12-19T04:48:15.683Z,5.53
2018-12-19T04:49:19.071Z,5.15
2018-12-19T04:50:22.454Z,3.37
2018-12-19T04:51:25.827Z,3.55
2018-12-19T04:52:29.195Z,3.45
2018-12-19T04:53:32.953Z,3.20
2018-12-19T04:54:36.358Z,3.20
2018-12-19T04:55:40.995Z,3.22
2018-12-19T04:56:44.368Z,3.75
2018-12-19T04:57:47.750Z,3.15
2018-12-19T04:58:51.169Z,3.47
2018-12-19T04:59:54.545Z,3.20
2018-12-19T05:00:57.932Z,3.45
2018-12-19T05:02:01.335Z,3.40
2018-12-19T05:03:04.687Z,3.35
2018-12-19T05:04:08.091Z,3.17
2018-12-19T05:05:11.506Z,2.98
2018-12-19T05:06:14.890Z,2.95
2018-12-19T05:07:19.747Z,3.40
2018-12-19T05:08:23.108Z,3.00
2018-12-19T05:09:26.471Z,3.30
2018-12-19T05:10:29.874Z,3.10
2018-12-19T05:11:33.682Z,3.52
2018-12-19T05:12:37.045Z,3.10
2018-12-19T05:13:40.463Z,3.27
2018-12-19T05:14:43.983Z,3.50
2018-12-19T05:15:47.416Z,3.52
2018-12-19T05:16:50.891Z,3.52
2018-12-19T05:17:54.294Z,3.40
2018-12-19T05:18:57.663Z,3.10
2018-12-19T05:20:01.156Z,3.45
2018-12-19T05:21:04.574Z,3.17
2018-12-19T05:22:07.933Z,3.67
2018-12-19T05:23:11.364Z,3.40
2018-12-19T05:24:15.863Z,3.55
2018-12-19T05:25:19.411Z,3.50
2018-12-19T05:26:22.807Z,3.50
2018-12-19T05:27:26.168Z,3.30
2018-12-19T05:28:29.579Z,2.80
2018-12-19T05:29:32.988Z,3.58
2018-12-19T05:30:36.353Z,3.33
2018-12-19T05:31:39.762Z,3.40
2018-12-19T05:32:43.119Z,3.35
2018-12-19T05:33:46.494Z,3.90
2018-12-19T05:34:49.907Z,3.70
2018-12-19T05:35:53.327Z,3.40
2018-12-19T05:36:56.733Z,3.55
2018-12-19T05:38:00.123Z,3.35
2018-12-19T05:39:05.127Z,3.35
2018-12-19T05:40:08.966Z,3.60
2018-12-19T05:41:12.358Z,3.60
2018-12-19T05:42:15.837Z,3.33
2018-12-19T05:43:19.342Z,4.17
2018-12-19T05:44:22.719Z,3.33
2018-12-19T05:45:26.101Z,3.27
2018-12-19T05:46:29.463Z,3.45
2018-12-19T05:47:32.862Z,3.33
2018-12-19T05:48:36.251Z,3.67
2018-12-19T05:49:39.792Z,3.90
2018-12-19T05:50:43.179Z,3.37
2018-12-19T05:51:46.545Z,3.47
2018-12-19T05:52:49.940Z,3.45
2018-12-19T05:53:53.314Z,4.67
2018-12-19T05:54:56.841Z,4.00
2018-12-19T05:56:00.232Z,4.55
2018-12-19T05:57:03.612Z,4.60
2018-12-19T05:58:07.010Z,4.62
2018-12-19T05:59:10.411Z,5.97
2018-12-19T06:00:14.020Z,7.00
2018-12-19T06:01:17.380Z,6.60
2018-12-19T06:02:20.818Z,13.20
2018-12-19T06:03:24.226Z,6.35
2018-12-19T06:04:27.599Z,4.90
2018-12-19T06:05:30.985Z,4.40
2018-12-19T06:06:34.375Z,4.40
2018-12-19T06:07:37.746Z,4.00
2018-12-19T06:08:41.139Z,3.72
2018-12-19T06:09:44.510Z,4.03
2018-12-19T06:10:47.875Z,4.33
2018-12-19T06:11:51.342Z,4.25
2018-12-19T06:12:54.705Z,4.92
2018-12-19T06:13:58.145Z,4.30
2018-12-19T06:15:01.531Z,4.25
2018-12-19T06:16:04.915Z,7.65
2018-12-19T06:17:08.313Z,6.47
2018-12-19T06:18:11.685Z,4.22
2018-12-19T06:19:15.083Z,4.85
2018-12-19T06:20:18.526Z,4.33
2018-12-19T06:21:21.927Z,4.03
2018-12-19T06:22:25.301Z,4.17
2018-12-19T06:23:28.680Z,7.28
2018-12-19T06:24:32.075Z,5.00
2018-12-19T06:25:35.482Z,6.25
2018-12-19T06:26:39.027Z,6.70
2018-12-19T06:27:42.414Z,6.95
2018-12-19T06:28:45.801Z,7.33
2018-12-19T06:29:49.217Z,6.45
2018-12-19T06:30:52.591Z,7.33
2018-12-19T06:31:55.975Z,7.22
2018-12-19T06:32:59.395Z,5.60
2018-12-19T06:34:02.786Z,5.92
2018-12-19T06:35:06.191Z,6.47
2018-12-19T06:36:10.106Z,8.95
2018-12-19T06:37:13.485Z,8.73
2018-12-19T06:38:16.970Z,7.37
2018-12-19T06:39:20.651Z,8.88
2018-12-19T06:40:24.333Z,7.10
2018-12-19T06:41:27.707Z,6.80
2018-12-19T06:42:31.094Z,5.72
2018-12-19T06:43:34.502Z,5.47
2018-12-19T06:44:41.300Z,5.28
2018-12-19T06:45:46.045Z,5.90
2018-12-19T06:46:49.558Z,5.17
2018-12-19T06:47:53.254Z,5.30
2018-12-19T06:48:56.657Z,5.45
2018-12-19T06:50:00.026Z,5.40
2018-12-19T06:51:03.414Z,4.50
2018-12-19T06:52:06.797Z,4.30
2018-12-19T06:53:10.237Z,5.28
2018-12-19T06:54:13.610Z,5.65
2018-12-19T06:55:16.998Z,5.37
2018-12-19T06:56:20.427Z,5.30
2018-12-19T06:57:23.813Z,4.83
2018-12-19T06:58:27.197Z,5.83
2018-12-19T06:59:30.572Z,5.47
2018-12-19T07:00:33.960Z,6.42
2018-12-19T07:01:37.355Z,5.25
2018-12-19T07:02:40.735Z,5.53
2018-12-19T07:03:44.124Z,5.42
2018-12-19T07:04:47.486Z,5.65
2018-12-19T07:05:50.866Z,5.45
2018-12-19T07:06:54.323Z,5.22
2018-12-19T07:07:57.690Z,5.75
2018-12-19T07:09:01.189Z,4.78
2018-12-19T07:10:04.971Z,5.17
2018-12-19T07:11:08.330Z,5.40
2018-12-19T07:12:11.858Z,4.40
2018-12-19T07:13:15.253Z,5.55
2018-12-19T07:14:18.745Z,4.67
2018-12-19T07:15:22.141Z,4.92
2018-12-19T07:16:25.640Z,5.08
2018-12-19T07:17:29.074Z,5.22
2018-12-19T07:18:32.519Z,5.20
2018-12-19T07:19:35.939Z,4.50
2018-12-19T07:20:39.352Z,4.95
2018-12-19T07:21:42.751Z,4.10
2018-12-19T07:22:46.157Z,4.85
2018-12-19T07:23:49.573Z,4.85
2018-12-19T07:24:52.987Z,4.80
2018-12-19T07:25:56.421Z,4.40
2018-12-19T07:26:59.951Z,4.90
2018-12-19T07:28:03.383Z,4.95
2018-12-19T07:29:06.772Z,5.37
2018-12-19T07:30:10.170Z,5.03
2018-12-19T07:31:13.608Z,5.12
2018-12-19T07:32:17.043Z,4.97
2018-12-19T07:33:20.509Z,5.60
2018-12-19T07:34:23.966Z,5.72
2018-12-19T07:35:27.362Z,5.10
2018-12-19T07:36:30.809Z,5.17
2018-12-19T07:37:34.201Z,5.62
2018-12-19T07:38:37.835Z,5.33
2018-12-19T07:39:41.246Z,4.90
2018-12-19T07:40:45.847Z,5.10
2018-12-19T07:41:49.437Z,5.30
2018-12-19T07:42:52.833Z,6.92
2018-12-19T07:43:56.254Z,8.85
2018-12-19T07:44:59.646Z,10.08
2018-12-19T07:46:03.027Z,7.15
2018-12-19T07:47:06.546Z,8.95
2018-12-19T07:48:09.959Z,4.85
2018-12-19T07:49:13.509Z,4.85
2018-12-19T07:50:16.916Z,4.47
2018-12-19T07:51:20.306Z,4.62
2018-12-19T07:52:23.846Z,4.85
2018-12-19T07:53:27.413Z,4.60
2018-12-19T07:54:30.961Z,5.37
2018-12-19T07:55:36.407Z,6.37
2018-12-19T07:56:39.784Z,6.37
2018-12-19T07:57:43.203Z,7.50
2018-12-19T07:58:46.578Z,6.25
2018-12-19T07:59:50.061Z,8.75
2018-12-19T08:00:53.495Z,8.20
2018-12-19T08:01:56.949Z,7.55
2018-12-19T08:03:00.594Z,7.53
2018-12-19T08:04:04.170Z,8.45
2018-12-19T08:05:07.718Z,7.22
2018-12-19T08:06:11.115Z,7.10
2018-12-19T08:07:14.473Z,6.55
2018-12-19T08:08:18.211Z,6.08
2018-12-19T08:09:21.822Z,6.17
2018-12-19T08:10:25.238Z,7.97
2018-12-19T08:11:28.766Z,6.95
2018-12-19T08:12:35.998Z,5.67
2018-12-19T08:13:37.569Z,6.70
2018-12-19T08:14:40.974Z,7.45
2018-12-19T08:15:44.375Z,6.60
2018-12-19T08:16:47.768Z,4.80
2018-12-19T08:17:51.169Z,5.33
2018-12-19T08:18:54.595Z,5.30
2018-12-19T08:19:58.183Z,7.70
2018-12-19T08:21:01.702Z,7.30
2018-12-19T08:22:05.151Z,6.85
2018-12-19T08:23:08.535Z,5.75
2018-12-19T08:24:11.930Z,5.60
2018-12-19T08:25:15.371Z,5.45
2018-12-19T08:26:19.388Z,5.15
2018-12-19T08:27:23.015Z,4.50
2018-12-19T08:28:26.399Z,4.58
2018-12-19T08:29:29.770Z,5.62
2018-12-19T08:30:33.146Z,4.80
2018-12-19T08:31:36.542Z,5.70
2018-12-19T08:32:39.955Z,4.97
2018-12-19T08:33:43.361Z,4.47
2018-12-19T08:34:46.741Z,5.97
2018-12-19T08:35:50.198Z,5.40
2018-12-19T08:36:53.762Z,5.65
2018-12-19T08:37:57.294Z,5.80
2018-12-19T08:39:00.773Z,4.58
2018-12-19T08:40:04.621Z,4.90
2018-12-19T08:41:08.034Z,4.37
2018-12-19T08:42:11.467Z,4.67
2018-12-19T08:43:14.849Z,5.37
2018-12-19T08:44:18.247Z,5.05
2018-12-19T08:45:21.993Z,4.62
2018-12-19T08:46:25.372Z,4.25
2018-12-19T08:47:28.784Z,5.12
2018-12-19T08:48:32.185Z,6.65
2018-12-19T08:49:35.559Z,6.75
2018-12-19T08:50:38.943Z,5.35
2018-12-19T08:51:42.316Z,6.12
2018-12-19T08:52:45.729Z,5.05
2018-12-19T08:53:49.168Z,4.65
2018-12-19T08:54:52.578Z,3.75
2018-12-19T08:55:56.047Z,4.05
2018-12-19T08:56:59.417Z,3.90
2018-12-19T08:58:02.970Z,3.47
2018-12-19T08:59:06.384Z,3.83
2018-12-19T09:00:11.399Z,4.10
2018-12-19T09:01:14.876Z,4.83
2018-12-19T09:02:18.261Z,4.67
2018-12-19T09:03:21.662Z,7.72
2018-12-19T09:04:25.864Z,6.40
2018-12-19T09:05:29.638Z,5.60
2018-12-19T09:06:33.060Z,4.15
2018-12-19T09:07:36.586Z,3.45
2018-12-19T09:08:39.989Z,4.08
2018-12-19T09:09:43.529Z,4.20
2018-12-19T09:10:46.917Z,4.62
2018-12-19T09:11:50.350Z,4.83
2018-12-19T09:12:53.771Z,3.83
2018-12-19T09:13:57.170Z,4.70
2018-12-19T09:15:00.645Z,4.22
2018-12-19T09:16:04.143Z,4.05
2018-12-19T09:17:07.749Z,4.85
2018-12-19T09:18:11.234Z,4.00
2018-12-19T09:19:14.706Z,4.50
2018-12-19T09:20:18.201Z,4.17
2018-12-19T09:21:21.585Z,4.30
2018-12-19T09:22:25.085Z,3.90
2018-12-19T09:23:28.478Z,3.83
2018-12-19T09:24:31.942Z,3.95
2018-12-19T09:25:35.313Z,3.55
2018-12-19T09:26:38.700Z,3.45
2018-12-19T09:27:42.073Z,3.22
2018-12-19T09:28:45.575Z,4.28
2018-12-19T09:29:48.951Z,3.60
2018-12-19T09:30:52.403Z,3.40
2018-12-19T09:31:55.785Z,4.85
2018-12-19T09:32:59.271Z,4.65
2018-12-19T09:34:02.660Z,3.70
2018-12-19T09:35:06.074Z,3.30
2018-12-19T09:36:09.444Z,2.87
2018-12-19T09:37:12.882Z,2.87
2018-12-19T09:38:16.262Z,3.42
2018-12-19T09:39:19.794Z,3.60
2018-12-19T09:40:23.205Z,3.60
2018-12-19T09:41:26.606Z,3.60
2018-12-19T09:42:30.004Z,4.08
2018-12-19T09:43:33.501Z,3.80
2018-12-19T09:44:36.938Z,3.55
2018-12-19T09:45:40.314Z,3.50
2018-12-19T09:46:43.706Z,4.00
2018-12-19T09:47:47.094Z,4.62
2018-12-19T09:48:50.478Z,3.60
2018-12-19T09:49:53.896Z,3.87
2018-12-19T09:50:57.312Z,3.47
2018-12-19T09:52:00.714Z,3.20
2018-12-19T09:53:04.087Z,3.40
2018-12-19T09:54:07.523Z,3.60
2018-12-19T09:55:10.911Z,4.00
2018-12-19T09:56:14.358Z,4.03
2018-12-19T09:57:18.562Z,4.22
2018-12-19T09:58:21.973Z,4.17
2018-12-19T09:59:25.354Z,3.60
2018-12-19T10:00:28.915Z,4.65
2018-12-19T10:01:32.343Z,5.10
2018-12-19T10:02:35.946Z,5.70
2018-12-19T10:03:39.357Z,4.50
2018-12-19T10:04:42.872Z,27.45
2018-12-19T10:05:46.319Z,7.60
2018-12-19T10:06:49.749Z,4.50
2018-12-19T10:07:53.131Z,3.70
2018-12-19T10:08:56.554Z,3.45
2018-12-19T10:09:59.958Z,3.80
2018-12-19T10:11:03.403Z,4.22
2018-12-19T10:12:06.787Z,4.70
2018-12-19T10:13:10.552Z,3.37
2018-12-19T10:14:13.931Z,3.15
2018-12-19T10:15:17.305Z,3.15
2018-12-19T10:16:20.878Z,3.50
2018-12-19T10:17:24.274Z,3.52
2018-12-19T10:18:27.637Z,3.15
2018-12-19T10:19:31.078Z,2.80
2018-12-19T10:20:34.482Z,2.75
2018-12-19T10:21:38.172Z,3.12
2018-12-19T10:22:41.643Z,3.00
2018-12-19T10:23:45.026Z,3.02
2018-12-19T10:24:53.661Z,2.85
2018-12-19T10:26:02.238Z,3.15
2018-12-19T10:27:05.638Z,3.83
2018-12-19T10:28:09.063Z,3.20
2018-12-19T10:29:12.447Z,3.37
2018-12-19T10:30:15.846Z,3.20
2018-12-19T10:31:19.230Z,3.50
2018-12-19T10:32:22.674Z,3.58
2018-12-19T10:33:26.347Z,3.10
2018-12-19T10:34:29.759Z,3.45
2018-12-19T10:35:33.173Z,3.70
2018-12-19T10:36:37.430Z,3.52
2018-12-19T10:37:40.834Z,3.40
2018-12-19T10:38:44.295Z,5.25
2018-12-19T10:39:47.791Z,5.40
2018-12-19T10:40:51.179Z,3.67
2018-12-19T10:41:54.603Z,3.58
2018-12-19T10:42:58.063Z,4.05
2018-12-19T10:44:01.665Z,3.58
2018-12-19T10:45:07.058Z,3.05
2018-12-19T10:46:10.454Z,3.08
2018-12-19T10:47:13.933Z,3.95
2018-12-19T10:48:17.322Z,2.60
2018-12-19T10:49:20.737Z,2.95
2018-12-19T10:50:24.128Z,3.45
2018-12-19T10:51:27.634Z,3.30
2018-12-19T10:52:31.023Z,4.00
2018-12-19T10:53:34.407Z,4.25
2018-12-19T10:54:37.777Z,3.60
2018-12-19T10:55:41.258Z,3.17
2018-12-19T10:56:44.759Z,3.58
2018-12-19T10:57:48.146Z,5.12
2018-12-19T10:58:51.566Z,5.30
2018-12-19T10:59:55.022Z,3.50
2018-12-19T11:01:01.253Z,3.83
2018-12-19T11:02:04.666Z,3.90
2018-12-19T11:03:08.062Z,3.33
2018-12-19T11:04:11.489Z,3.92
2018-12-19T11:05:14.887Z,2.70
2018-12-19T11:06:18.295Z,3.25
2018-12-19T11:07:21.685Z,4.10
2018-12-19T11:08:25.307Z,3.37
2018-12-19T11:09:28.698Z,3.40
2018-12-19T11:10:32.077Z,2.80
2018-12-19T11:11:35.510Z,6.25
2018-12-19T11:12:38.861Z,4.75
2018-12-19T11:13:42.311Z,5.67
2018-12-19T11:14:45.756Z,3.83
2018-12-19T11:15:49.142Z,3.10
2018-12-19T11:16:52.530Z,3.98
2018-12-19T11:17:56.006Z,3.17
2018-12-19T11:18:59.386Z,4.37
2018-12-19T11:20:02.925Z,3.67
2018-12-19T11:21:06.422Z,4.62
2018-12-19T11:22:10.806Z,3.50
2018-12-19T11:23:14.276Z,3.62
2018-12-19T11:24:17.795Z,4.65
2018-12-19T11:25:21.263Z,4.92
2018-12-19T11:26:25.061Z,3.87
2018-12-19T11:27:28.537Z,4.00
2018-12-19T11:28:31.926Z,5.42
2018-12-19T11:29:35.340Z,5.90
2018-12-19T11:30:38.819Z,4.95
2018-12-19T11:31:42.206Z,3.60
2018-12-19T11:32:45.615Z,3.62
2018-12-19T11:33:49.032Z,2.60
2018-12-19T11:34:52.428Z,3.05
2018-12-19T11:35:55.839Z,3.87
2018-12-19T11:36:59.266Z,2.72
2018-12-19T11:38:02.683Z,2.70
2018-12-19T11:39:07.731Z,3.37
2018-12-19T11:40:11.155Z,3.33
2018-12-19T11:41:14.570Z,4.25
2018-12-19T11:42:17.960Z,3.83
2018-12-19T11:43:21.556Z,3.67
2018-12-19T11:44:24.942Z,4.50
2018-12-19T11:45:28.422Z,3.30
2018-12-19T11:46:31.859Z,3.62
2018-12-19T11:47:35.256Z,2.42
2018-12-19T11:48:38.638Z,2.85
2018-12-19T11:49:42.035Z,2.58
2018-12-19T11:50:45.423Z,4.17
2018-12-19T11:51:48.920Z,3.22
2018-12-19T11:52:52.343Z,2.20
2018-12-19T11:53:55.697Z,3.17
2018-12-19T11:54:59.083Z,2.65
2018-12-19T11:56:02.520Z,3.15
2018-12-19T11:57:06.053Z,4.67
2018-12-19T11:58:09.515Z,4.20
2018-12-19T11:59:12.914Z,3.87
2018-12-19T12:00:16.299Z,4.00
2018-12-19T12:01:19.707Z,3.22
2018-12-19T12:02:23.147Z,2.85
2018-12-19T12:03:26.555Z,3.35
2018-12-19T12:04:29.971Z,2.77
2018-12-19T12:05:33.378Z,4.37
2018-12-19T12:06:36.767Z,3.83
2018-12-19T12:07:40.223Z,2.80
2018-12-19T12:08:43.626Z,3.08
2018-12-19T12:09:47.037Z,3.55
2018-12-19T12:10:50.509Z,3.08
2018-12-19T12:11:53.901Z,2.70
2018-12-19T12:12:57.304Z,2.58
2018-12-19T12:14:00.734Z,3.30
2018-12-19T12:15:05.574Z,2.85
2018-12-19T12:16:08.953Z,3.58
2018-12-19T12:17:12.543Z,3.62
2018-12-19T12:18:15.934Z,3.10
2018-12-19T12:19:19.345Z,2.87
2018-12-19T12:20:22.747Z,2.02
2018-12-19T12:21:26.147Z,3.33
2018-12-19T12:22:29.519Z,3.65
2018-12-19T12:23:33.167Z,3.17
2018-12-19T12:24:36.555Z,2.58
2018-12-19T12:25:40.085Z,2.35
2018-12-19T12:26:43.452Z,2.80
2018-12-19T12:27:46.836Z,2.25
2018-12-19T12:28:50.244Z,3.17
2018-12-19T12:29:53.793Z,3.50
2018-12-19T12:30:57.191Z,3.72
2018-12-19T12:32:00.607Z,4.50
2018-12-19T12:33:03.983Z,4.28
2018-12-19T12:34:07.358Z,5.35
2018-12-19T12:35:10.781Z,4.58
2018-12-19T12:36:14.270Z,3.72
2018-12-19T12:37:17.685Z,3.67
2018-12-19T12:38:21.162Z,3.08
2018-12-19T12:39:24.578Z,3.37
2018-12-19T12:40:27.970Z,4.05
2018-12-19T12:41:31.397Z,3.85
2018-12-19T12:42:34.784Z,6.78
2018-12-19T12:43:38.289Z,3.98
2018-12-19T12:44:41.933Z,3.85
2018-12-19T12:45:45.318Z,4.25
2018-12-19T12:46:48.712Z,2.55
2018-12-19T12:47:52.126Z,2.95
2018-12-19T12:48:55.502Z,2.45
2018-12-19T12:49:58.981Z,3.10
2018-12-19T12:51:02.483Z,3.27
2018-12-19T12:52:05.885Z,4.20
2018-12-19T12:53:09.266Z,3.15
2018-12-19T12:54:12.667Z,3.10
2018-12-19T12:55:16.054Z,3.15
2018-12-19T12:56:19.441Z,2.58
2018-12-19T12:57:22.822Z,2.87
2018-12-19T12:58:26.229Z,2.20
2018-12-19T12:59:29.666Z,2.12
2018-12-19T13:00:33.065Z,2.90
2018-12-19T13:01:36.631Z,2.72
2018-12-19T13:02:40.134Z,3.20
2018-12-19T13:03:43.517Z,3.70
2018-12-19T13:04:46.902Z,2.62
2018-12-19T13:05:50.329Z,3.77
2018-12-19T13:06:53.703Z,2.55
2018-12-19T13:07:57.182Z,3.33
2018-12-19T13:09:00.563Z,2.83
2018-12-19T13:10:04.896Z,2.80
2018-12-19T13:11:08.335Z,2.47
2018-12-19T13:12:11.717Z,3.47
2018-12-19T13:13:15.097Z,2.50
2018-12-19T13:14:18.651Z,2.05
2018-12-19T13:15:27.390Z,1.77
2018-12-19T13:16:30.805Z,2.77
2018-12-19T13:17:34.189Z,2.55
2018-12-19T13:18:37.950Z,2.50
2018-12-19T13:19:41.340Z,2.10
2018-12-19T13:20:44.722Z,2.35
2018-12-19T13:21:48.167Z,2.22
2018-12-19T13:22:51.612Z,2.60
2018-12-19T13:23:55.015Z,1.80
2018-12-19T13:24:58.454Z,2.22
2018-12-19T13:26:01.871Z,1.52
2018-12-19T13:27:05.288Z,1.60
2018-12-19T13:28:08.806Z,1.95
2018-12-19T13:29:12.184Z,2.10
2018-12-19T13:30:15.618Z,1.50
2018-12-19T13:31:19.094Z,1.92
2018-12-19T13:32:22.707Z,1.77
2018-12-19T13:33:26.103Z,1.22
2018-12-19T13:34:29.663Z,2.00
2018-12-19T13:35:33.094Z,1.80
2018-12-19T13:36:36.479Z,3.50
2018-12-19T13:37:40.063Z,2.30
2018-12-19T13:38:44.926Z,1.70
2018-12-19T13:39:48.474Z,2.10
2018-12-19T13:40:51.845Z,2.00
2018-12-19T13:41:55.247Z,1.60
2018-12-19T13:42:58.649Z,2.12
2018-12-19T13:44:02.033Z,2.80
2018-12-19T13:45:07.020Z,2.30
2018-12-19T13:46:10.409Z,5.58
2018-12-19T13:47:13.792Z,3.77
2018-12-19T13:48:17.183Z,3.10
2018-12-19T13:49:20.559Z,2.40
2018-12-19T13:50:24.923Z,2.00
2018-12-19T13:51:28.490Z,1.80
2018-12-19T13:52:31.872Z,2.00
2018-12-19T13:53:35.281Z,1.62
2018-12-19T13:54:38.658Z,1.55
2018-12-19T13:55:42.063Z,1.52
2018-12-19T13:56:45.459Z,2.00
2018-12-19T13:57:48.848Z,2.00
2018-12-19T13:58:52.553Z,2.02
2018-12-19T13:59:55.928Z,2.00
2018-12-19T14:00:59.346Z,1.87
2018-12-19T14:02:02.770Z,2.02
2018-12-19T14:03:06.145Z,2.33
2018-12-19T14:04:09.746Z,1.70
2018-12-19T14:05:13.125Z,2.15